sensor_id;sensor_type;location;lat;lon;timestamp;temperature;humidity
41668;DHT22;27356;50.920;5.350;2023-02-22T00:00:22;5.70;99.90
41668;DHT22;27356;50.920;5.350;2023-02-22T00:02:56;5.80;99.90
41668;DHT22;27356;50.920;5.350;2023-02-22T00:05:26;5.90;99.90
41668;DHT22;27356;50.920;5.350;2023-02-22T00:07:53;6.00;99.90
41668;DHT22;27356;50.920;5.350;2023-02-22T00:10:22;5.70;99.90
41668;DHT22;27356;50.920;5.350;2023-02-22T00:12:50;5.50;99.90
41668;DHT22;27356;50.920;5.350;2023-02-22T00:15:19;5.40;99.90
41668;DHT22;27356;50.920;5.350;2023-02-22T00:17:45;5.40;99.90
41668;DHT22;27356;50.920;5.350;2023-02-22T00:20:12;5.50;99.90
41668;DHT22;27356;50.920;5.350;2023-02-22T00:22:43;5.50;99.90
41668;DHT22;27356;50.920;5.350;2023-02-22T00:25:13;5.50;99.90
41668;DHT22;27356;50.920;5.350;2023-02-22T00:27:42;5.70;99.90
41668;DHT22;27356;50.920;5.350;2023-02-22T00:30:12;5.70;99.90
41668;DHT22;27356;50.920;5.350;2023-02-22T00:32:39;5.90;99.90
41668;DHT22;27356;50.920;5.350;2023-02-22T00:35:05;5.90;99.90
41668;DHT22;27356;50.920;5.350;2023-02-22T00:37:33;5.90;99.90
41668;DHT22;27356;50.920;5.350;2023-02-22T00:40:00;5.80;99.90
41668;DHT22;27356;50.920;5.350;2023-02-22T00:42:25;5.90;99.90
41668;DHT22;27356;50.920;5.350;2023-02-22T00:44:51;5.90;99.90
41668;DHT22;27356;50.920;5.350;2023-02-22T00:47:18;6.00;99.90
41668;DHT22;27356;50.920;5.350;2023-02-22T00:49:44;6.00;99.90
41668;DHT22;27356;50.920;5.350;2023-02-22T00:52:10;5.90;99.90
41668;DHT22;27356;50.920;5.350;2023-02-22T00:54:35;6.00;99.90
41668;DHT22;27356;50.920;5.350;2023-02-22T00:57:02;5.90;99.90
41668;DHT22;27356;50.920;5.350;2023-02-22T00:59:28;5.80;99.90
41668;DHT22;27356;50.920;5.350;2023-02-22T01:01:55;5.90;99.90
41668;DHT22;27356;50.920;5.350;2023-02-22T01:04:21;5.90;99.90
41668;DHT22;27356;50.920;5.350;2023-02-22T01:06:46;5.80;99.90
41668;DHT22;27356;50.920;5.350;2023-02-22T01:09:12;5.90;99.90
41668;DHT22;27356;50.920;5.350;2023-02-22T01:11:38;5.90;99.90
41668;DHT22;27356;50.920;5.350;2023-02-22T01:14:03;6.00;99.90
41668;DHT22;27356;50.920;5.350;2023-02-22T01:16:30;6.10;99.90
41668;DHT22;27356;50.920;5.350;2023-02-22T01:18:56;6.00;99.90
41668;DHT22;27356;50.920;5.350;2023-02-22T01:21:21;6.10;99.90
41668;DHT22;27356;50.920;5.350;2023-02-22T01:23:47;6.00;99.90
41668;DHT22;27356;50.920;5.350;2023-02-22T01:26:13;6.00;99.90
41668;DHT22;27356;50.920;5.350;2023-02-22T01:28:38;6.00;99.90
41668;DHT22;27356;50.920;5.350;2023-02-22T01:31:04;5.90;99.90
41668;DHT22;27356;50.920;5.350;2023-02-22T01:33:31;6.00;99.90
41668;DHT22;27356;50.920;5.350;2023-02-22T01:35:58;5.80;99.90
41668;DHT22;27356;50.920;5.350;2023-02-22T01:38:24;5.90;99.90
41668;DHT22;27356;50.920;5.350;2023-02-22T01:40:50;5.90;99.90
41668;DHT22;27356;50.920;5.350;2023-02-22T01:43:28;5.70;99.90
41668;DHT22;27356;50.920;5.350;2023-02-22T01:45:58;5.60;99.90
41668;DHT22;27356;50.920;5.350;2023-02-22T01:48:41;5.60;99.90
41668;DHT22;27356;50.920;5.350;2023-02-22T01:53:52;5.40;99.90
41668;DHT22;27356;50.920;5.350;2023-02-22T01:56:20;5.40;99.90
41668;DHT22;27356;50.920;5.350;2023-02-22T01:58:49;5.50;99.90
41668;DHT22;27356;50.920;5.350;2023-02-22T02:01:19;5.50;99.90
41668;DHT22;27356;50.920;5.350;2023-02-22T02:03:47;5.50;99.90
41668;DHT22;27356;50.920;5.350;2023-02-22T02:06:14;5.50;99.90
41668;DHT22;27356;50.920;5.350;2023-02-22T02:11:25;5.30;99.90
41668;DHT22;27356;50.920;5.350;2023-02-22T02:13:54;5.40;99.90
41668;DHT22;27356;50.920;5.350;2023-02-22T02:16:24;5.40;99.90
41668;DHT22;27356;50.920;5.350;2023-02-22T02:18:51;5.20;99.90
41668;DHT22;27356;50.920;5.350;2023-02-22T02:21:38;5.40;99.90
41668;DHT22;27356;50.920;5.350;2023-02-22T02:35:10;5.10;99.90
41668;DHT22;27356;50.920;5.350;2023-02-22T02:42:53;4.50;99.90
41668;DHT22;27356;50.920;5.350;2023-02-22T02:45:28;4.60;99.90
41668;DHT22;27356;50.920;5.350;2023-02-22T02:47:56;4.60;99.90
41668;DHT22;27356;50.920;5.350;2023-02-22T02:50:46;4.60;99.90
41668;DHT22;27356;50.920;5.350;2023-02-22T02:53:23;4.60;99.90
41668;DHT22;27356;50.920;5.350;2023-02-22T02:55:50;4.50;99.90
41668;DHT22;27356;50.920;5.350;2023-02-22T02:58:21;4.60;99.90
41668;DHT22;27356;50.920;5.350;2023-02-22T03:00:51;4.60;99.90
41668;DHT22;27356;50.920;5.350;2023-02-22T03:11:54;4.70;99.90
41668;DHT22;27356;50.920;5.350;2023-02-22T03:14:34;4.60;99.90
41668;DHT22;27356;50.920;5.350;2023-02-22T03:17:21;4.40;99.90
41668;DHT22;27356;50.920;5.350;2023-02-22T03:19:58;4.50;99.90
41668;DHT22;27356;50.920;5.350;2023-02-22T03:22:32;4.60;99.90
41668;DHT22;27356;50.920;5.350;2023-02-22T03:25:02;4.60;99.90
41668;DHT22;27356;50.920;5.350;2023-02-22T03:27:37;4.40;99.90
41668;DHT22;27356;50.920;5.350;2023-02-22T03:30:10;4.10;99.90
41668;DHT22;27356;50.920;5.350;2023-02-22T03:32:40;4.20;99.90
41668;DHT22;27356;50.920;5.350;2023-02-22T03:35:15;4.40;99.90
41668;DHT22;27356;50.920;5.350;2023-02-22T03:37:49;4.30;99.90
41668;DHT22;27356;50.920;5.350;2023-02-22T03:40:22;4.20;99.90
41668;DHT22;27356;50.920;5.350;2023-02-22T03:42:53;4.30;99.90
41668;DHT22;27356;50.920;5.350;2023-02-22T03:45:26;4.20;99.90
41668;DHT22;27356;50.920;5.350;2023-02-22T03:48:02;4.20;99.90
41668;DHT22;27356;50.920;5.350;2023-02-22T03:50:34;4.20;99.90
41668;DHT22;27356;50.920;5.350;2023-02-22T03:53:01;4.30;99.90
41668;DHT22;27356;50.920;5.350;2023-02-22T03:55:27;4.40;99.90
41668;DHT22;27356;50.920;5.350;2023-02-22T03:57:59;4.40;99.90
41668;DHT22;27356;50.920;5.350;2023-02-22T04:00:28;4.60;99.90
41668;DHT22;27356;50.920;5.350;2023-02-22T04:02:55;4.60;99.90
41668;DHT22;27356;50.920;5.350;2023-02-22T04:05:21;4.40;99.90
41668;DHT22;27356;50.920;5.350;2023-02-22T04:07:52;4.40;99.90
41668;DHT22;27356;50.920;5.350;2023-02-22T04:10:18;4.50;99.90
41668;DHT22;27356;50.920;5.350;2023-02-22T04:12:44;4.50;99.90
41668;DHT22;27356;50.920;5.350;2023-02-22T04:15:13;4.40;99.90
41668;DHT22;27356;50.920;5.350;2023-02-22T04:17:40;4.50;99.90
41668;DHT22;27356;50.920;5.350;2023-02-22T04:20:06;4.40;99.90
41668;DHT22;27356;50.920;5.350;2023-02-22T04:22:32;4.40;99.90
41668;DHT22;27356;50.920;5.350;2023-02-22T04:24:58;4.40;99.90
41668;DHT22;27356;50.920;5.350;2023-02-22T04:27:23;4.50;99.90
41668;DHT22;27356;50.920;5.350;2023-02-22T04:29:49;4.30;99.90
41668;DHT22;27356;50.920;5.350;2023-02-22T04:32:15;4.40;99.90
41668;DHT22;27356;50.920;5.350;2023-02-22T04:34:41;4.50;99.90
41668;DHT22;27356;50.920;5.350;2023-02-22T04:37:06;4.40;99.90
41668;DHT22;27356;50.920;5.350;2023-02-22T04:39:36;4.30;99.90
41668;DHT22;27356;50.920;5.350;2023-02-22T04:42:02;4.50;99.90
41668;DHT22;27356;50.920;5.350;2023-02-22T04:44:28;4.60;99.90
41668;DHT22;27356;50.920;5.350;2023-02-22T04:46:54;4.60;99.90
41668;DHT22;27356;50.920;5.350;2023-02-22T04:49:21;4.50;99.90
41668;DHT22;27356;50.920;5.350;2023-02-22T04:51:46;4.70;99.90
41668;DHT22;27356;50.920;5.350;2023-02-22T04:54:12;4.60;99.90
41668;DHT22;27356;50.920;5.350;2023-02-22T04:56:38;4.60;99.90
41668;DHT22;27356;50.920;5.350;2023-02-22T04:59:04;4.60;99.90
41668;DHT22;27356;50.920;5.350;2023-02-22T05:01:31;4.30;99.90
41668;DHT22;27356;50.920;5.350;2023-02-22T05:03:58;4.20;99.90
41668;DHT22;27356;50.920;5.350;2023-02-22T05:06:24;4.00;99.90
41668;DHT22;27356;50.920;5.350;2023-02-22T05:08:49;3.90;99.90
41668;DHT22;27356;50.920;5.350;2023-02-22T05:11:15;4.10;99.90
41668;DHT22;27356;50.920;5.350;2023-02-22T05:13:41;4.20;99.90
41668;DHT22;27356;50.920;5.350;2023-02-22T05:16:08;4.10;99.90
41668;DHT22;27356;50.920;5.350;2023-02-22T05:18:34;4.00;99.90
41668;DHT22;27356;50.920;5.350;2023-02-22T05:20:59;4.10;99.90
41668;DHT22;27356;50.920;5.350;2023-02-22T05:23:25;4.20;99.90
41668;DHT22;27356;50.920;5.350;2023-02-22T05:25:51;4.30;99.90
41668;DHT22;27356;50.920;5.350;2023-02-22T05:28:17;4.20;99.90
41668;DHT22;27356;50.920;5.350;2023-02-22T05:30:42;4.20;99.90
41668;DHT22;27356;50.920;5.350;2023-02-22T05:33:09;4.20;99.90
41668;DHT22;27356;50.920;5.350;2023-02-22T05:35:35;4.30;99.90
41668;DHT22;27356;50.920;5.350;2023-02-22T05:38:02;4.30;99.90
41668;DHT22;27356;50.920;5.350;2023-02-22T05:40:29;4.40;99.90
41668;DHT22;27356;50.920;5.350;2023-02-22T05:42:55;4.40;99.90
41668;DHT22;27356;50.920;5.350;2023-02-22T05:45:24;4.30;99.90
41668;DHT22;27356;50.920;5.350;2023-02-22T05:47:51;4.30;99.90
41668;DHT22;27356;50.920;5.350;2023-02-22T05:50:17;4.30;99.90
41668;DHT22;27356;50.920;5.350;2023-02-22T05:52:44;4.30;99.90
41668;DHT22;27356;50.920;5.350;2023-02-22T05:55:12;4.30;99.90
41668;DHT22;27356;50.920;5.350;2023-02-22T05:57:38;4.10;99.90
41668;DHT22;27356;50.920;5.350;2023-02-22T06:00:05;4.20;99.90
41668;DHT22;27356;50.920;5.350;2023-02-22T06:02:32;4.30;99.90
41668;DHT22;27356;50.920;5.350;2023-02-22T06:04:57;4.30;99.90
41668;DHT22;27356;50.920;5.350;2023-02-22T06:07:24;4.20;99.90
41668;DHT22;27356;50.920;5.350;2023-02-22T06:09:49;4.20;99.90
41668;DHT22;27356;50.920;5.350;2023-02-22T06:12:15;4.00;99.90
41668;DHT22;27356;50.920;5.350;2023-02-22T06:14:42;4.00;99.90
41668;DHT22;27356;50.920;5.350;2023-02-22T06:17:11;3.90;99.90
41668;DHT22;27356;50.920;5.350;2023-02-22T06:19:37;3.90;99.90
41668;DHT22;27356;50.920;5.350;2023-02-22T06:22:03;3.90;99.90
41668;DHT22;27356;50.920;5.350;2023-02-22T06:24:29;3.80;99.90
41668;DHT22;27356;50.920;5.350;2023-02-22T06:27:01;3.90;99.90
41668;DHT22;27356;50.920;5.350;2023-02-22T06:29:27;3.90;99.90
41668;DHT22;27356;50.920;5.350;2023-02-22T06:31:54;3.90;99.90
41668;DHT22;27356;50.920;5.350;2023-02-22T06:34:20;4.00;99.90
41668;DHT22;27356;50.920;5.350;2023-02-22T06:36:48;4.20;99.90
41668;DHT22;27356;50.920;5.350;2023-02-22T06:39:15;4.20;99.90
41668;DHT22;27356;50.920;5.350;2023-02-22T06:41:43;4.30;99.90
41668;DHT22;27356;50.920;5.350;2023-02-22T06:44:10;4.30;99.90
41668;DHT22;27356;50.920;5.350;2023-02-22T06:46:36;4.40;99.90
41668;DHT22;27356;50.920;5.350;2023-02-22T06:49:03;4.30;99.90
41668;DHT22;27356;50.920;5.350;2023-02-22T06:51:29;4.40;99.90
41668;DHT22;27356;50.920;5.350;2023-02-22T06:53:55;4.30;99.90
41668;DHT22;27356;50.920;5.350;2023-02-22T06:56:21;4.30;99.90
41668;DHT22;27356;50.920;5.350;2023-02-22T06:58:47;4.40;99.90
41668;DHT22;27356;50.920;5.350;2023-02-22T07:01:13;4.40;99.90
41668;DHT22;27356;50.920;5.350;2023-02-22T07:03:39;4.60;99.90
41668;DHT22;27356;50.920;5.350;2023-02-22T07:06:08;4.50;99.90
41668;DHT22;27356;50.920;5.350;2023-02-22T07:08:35;4.60;99.90
41668;DHT22;27356;50.920;5.350;2023-02-22T07:11:01;4.50;99.90
41668;DHT22;27356;50.920;5.350;2023-02-22T07:13:27;4.60;99.90
41668;DHT22;27356;50.920;5.350;2023-02-22T07:15:54;4.60;99.90
41668;DHT22;27356;50.920;5.350;2023-02-22T07:18:19;4.70;99.90
41668;DHT22;27356;50.920;5.350;2023-02-22T07:20:45;4.70;99.90
41668;DHT22;27356;50.920;5.350;2023-02-22T07:23:15;4.80;99.90
41668;DHT22;27356;50.920;5.350;2023-02-22T07:25:41;4.80;99.90
41668;DHT22;27356;50.920;5.350;2023-02-22T07:28:07;5.00;99.90
41668;DHT22;27356;50.920;5.350;2023-02-22T07:30:35;5.30;99.90
41668;DHT22;27356;50.920;5.350;2023-02-22T07:33:11;5.40;99.90
41668;DHT22;27356;50.920;5.350;2023-02-22T07:35:43;5.40;99.90
41668;DHT22;27356;50.920;5.350;2023-02-22T07:38:09;5.30;99.90
41668;DHT22;27356;50.920;5.350;2023-02-22T07:40:36;5.40;99.90
41668;DHT22;27356;50.920;5.350;2023-02-22T07:45:33;5.40;99.90
41668;DHT22;27356;50.920;5.350;2023-02-22T07:48:00;5.50;99.90
41668;DHT22;27356;50.920;5.350;2023-02-22T07:50:28;5.70;99.90
41668;DHT22;27356;50.920;5.350;2023-02-22T07:53:00;5.90;99.90
41668;DHT22;27356;50.920;5.350;2023-02-22T07:55:28;5.80;99.90
41668;DHT22;27356;50.920;5.350;2023-02-22T07:58:02;5.70;99.90
41668;DHT22;27356;50.920;5.350;2023-02-22T08:02:56;5.70;99.90
41668;DHT22;27356;50.920;5.350;2023-02-22T08:05:24;6.00;99.90
41668;DHT22;27356;50.920;5.350;2023-02-22T08:07:50;6.30;99.90
41668;DHT22;27356;50.920;5.350;2023-02-22T08:10:18;6.40;99.90
41668;DHT22;27356;50.920;5.350;2023-02-22T08:12:44;6.10;99.90
41668;DHT22;27356;50.920;5.350;2023-02-22T08:15:22;6.20;99.90
41668;DHT22;27356;50.920;5.350;2023-02-22T08:17:49;6.40;99.90
41668;DHT22;27356;50.920;5.350;2023-02-22T08:20:15;6.60;99.90
41668;DHT22;27356;50.920;5.350;2023-02-22T08:22:44;6.60;99.90
41668;DHT22;27356;50.920;5.350;2023-02-22T08:25:11;6.90;99.90
41668;DHT22;27356;50.920;5.350;2023-02-22T08:27:37;7.20;99.90
41668;DHT22;27356;50.920;5.350;2023-02-22T08:30:03;7.50;99.90
41668;DHT22;27356;50.920;5.350;2023-02-22T08:32:29;7.60;99.90
41668;DHT22;27356;50.920;5.350;2023-02-22T08:34:55;7.80;99.90
41668;DHT22;27356;50.920;5.350;2023-02-22T08:37:21;8.00;99.90
41668;DHT22;27356;50.920;5.350;2023-02-22T08:39:47;8.30;99.90
41668;DHT22;27356;50.920;5.350;2023-02-22T08:42:13;8.60;99.90
41668;DHT22;27356;50.920;5.350;2023-02-22T08:44:39;9.00;99.90
41668;DHT22;27356;50.920;5.350;2023-02-22T08:47:06;9.00;99.90
41668;DHT22;27356;50.920;5.350;2023-02-22T08:49:32;9.20;99.90
41668;DHT22;27356;50.920;5.350;2023-02-22T08:51:58;9.30;99.90
41668;DHT22;27356;50.920;5.350;2023-02-22T08:54:24;9.60;99.90
41668;DHT22;27356;50.920;5.350;2023-02-22T08:56:49;9.80;99.90
41668;DHT22;27356;50.920;5.350;2023-02-22T08:59:16;10.10;99.90
41668;DHT22;27356;50.920;5.350;2023-02-22T09:01:42;10.30;99.90
41668;DHT22;27356;50.920;5.350;2023-02-22T09:04:08;10.40;99.90
41668;DHT22;27356;50.920;5.350;2023-02-22T09:06:34;10.20;99.90
41668;DHT22;27356;50.920;5.350;2023-02-22T09:09:00;10.10;99.90
41668;DHT22;27356;50.920;5.350;2023-02-22T09:11:25;10.40;99.90
41668;DHT22;27356;50.920;5.350;2023-02-22T09:13:51;11.00;99.90
41668;DHT22;27356;50.920;5.350;2023-02-22T09:16:17;11.30;99.90
41668;DHT22;27356;50.920;5.350;2023-02-22T09:18:43;11.50;99.90
41668;DHT22;27356;50.920;5.350;2023-02-22T09:21:10;11.90;99.90
41668;DHT22;27356;50.920;5.350;2023-02-22T09:23:36;11.80;99.90
41668;DHT22;27356;50.920;5.350;2023-02-22T09:26:02;11.90;99.90
41668;DHT22;27356;50.920;5.350;2023-02-22T09:28:28;11.70;99.90
41668;DHT22;27356;50.920;5.350;2023-02-22T09:30:54;11.40;99.90
41668;DHT22;27356;50.920;5.350;2023-02-22T09:33:20;11.30;99.90
41668;DHT22;27356;50.920;5.350;2023-02-22T09:35:48;11.20;99.90
41668;DHT22;27356;50.920;5.350;2023-02-22T09:38:22;11.60;99.90
41668;DHT22;27356;50.920;5.350;2023-02-22T09:40:52;11.80;99.90
41668;DHT22;27356;50.920;5.350;2023-02-22T09:51:44;12.50;99.90
41668;DHT22;27356;50.920;5.350;2023-02-22T09:54:31;12.60;99.90
41668;DHT22;27356;50.920;5.350;2023-02-22T09:57:04;12.10;99.90
41668;DHT22;27356;50.920;5.350;2023-02-22T09:59:40;12.20;99.90
41668;DHT22;27356;50.920;5.350;2023-02-22T10:04:51;12.40;99.90
41668;DHT22;27356;50.920;5.350;2023-02-22T10:07:38;12.60;99.90
41668;DHT22;27356;50.920;5.350;2023-02-22T10:10:05;12.70;99.90
41668;DHT22;27356;50.920;5.350;2023-02-22T10:13:00;12.80;99.90
41668;DHT22;27356;50.920;5.350;2023-02-22T10:23:32;13.30;99.90
41668;DHT22;27356;50.920;5.350;2023-02-22T10:26:14;13.40;99.90
41668;DHT22;27356;50.920;5.350;2023-02-22T10:28:51;13.80;99.90
41668;DHT22;27356;50.920;5.350;2023-02-22T10:31:27;14.20;99.90
41668;DHT22;27356;50.920;5.350;2023-02-22T10:34:16;14.30;99.90
41668;DHT22;27356;50.920;5.350;2023-02-22T10:36:48;14.10;99.90
41668;DHT22;27356;50.920;5.350;2023-02-22T10:41:49;14.70;99.90
41668;DHT22;27356;50.920;5.350;2023-02-22T10:44:17;14.70;99.90
41668;DHT22;27356;50.920;5.350;2023-02-22T10:46:43;14.90;99.90
41668;DHT22;27356;50.920;5.350;2023-02-22T10:49:12;14.80;99.90
41668;DHT22;27356;50.920;5.350;2023-02-22T10:51:41;15.10;99.90
41668;DHT22;27356;50.920;5.350;2023-02-22T10:56:52;15.40;99.90
41668;DHT22;27356;50.920;5.350;2023-02-22T10:59:32;15.60;99.90
41668;DHT22;27356;50.920;5.350;2023-02-22T11:01:59;15.80;99.90
41668;DHT22;27356;50.920;5.350;2023-02-22T11:04:42;15.90;99.90
41668;DHT22;27356;50.920;5.350;2023-02-22T11:07:21;15.70;99.90
41668;DHT22;27356;50.920;5.350;2023-02-22T11:09:59;15.90;99.90
41668;DHT22;27356;50.920;5.350;2023-02-22T11:12:37;15.60;99.90
41668;DHT22;27356;50.920;5.350;2023-02-22T11:15:18;15.70;99.90
41668;DHT22;27356;50.920;5.350;2023-02-22T11:17:51;15.60;99.90
41668;DHT22;27356;50.920;5.350;2023-02-22T11:20:24;15.30;99.90
41668;DHT22;27356;50.920;5.350;2023-02-22T11:22:59;15.50;99.90
41668;DHT22;27356;50.920;5.350;2023-02-22T11:25:35;15.50;99.90
41668;DHT22;27356;50.920;5.350;2023-02-22T11:28:19;15.00;99.90
41668;DHT22;27356;50.920;5.350;2023-02-22T11:30:56;15.00;99.90
41668;DHT22;27356;50.920;5.350;2023-02-22T11:33:23;15.20;99.90
41668;DHT22;27356;50.920;5.350;2023-02-22T11:35:58;15.30;99.90
41668;DHT22;27356;50.920;5.350;2023-02-22T11:38:27;15.20;99.90
41668;DHT22;27356;50.920;5.350;2023-02-22T11:41:29;15.50;99.90
41668;DHT22;27356;50.920;5.350;2023-02-22T11:46:39;15.40;99.90
41668;DHT22;27356;50.920;5.350;2023-02-22T11:49:11;15.20;99.90
41668;DHT22;27356;50.920;5.350;2023-02-22T11:52:00;15.40;99.90
41668;DHT22;27356;50.920;5.350;2023-02-22T11:57:31;15.30;99.90
41668;DHT22;27356;50.920;5.350;2023-02-22T12:08:53;15.30;99.90
41668;DHT22;27356;50.920;5.350;2023-02-22T12:14:25;15.30;99.90
41668;DHT22;27356;50.920;5.350;2023-02-22T12:24:55;14.80;99.90
41668;DHT22;27356;50.920;5.350;2023-02-22T12:27:40;14.70;99.90
41668;DHT22;27356;50.920;5.350;2023-02-22T12:32:57;14.80;99.90
41668;DHT22;27356;50.920;5.350;2023-02-22T12:35:39;14.90;99.90
41668;DHT22;27356;50.920;5.350;2023-02-22T12:38:40;14.90;99.90
41668;DHT22;27356;50.920;5.350;2023-02-22T12:46:31;14.80;99.90
41668;DHT22;27356;50.920;5.350;2023-02-22T13:00:00;14.00;99.90
41668;DHT22;27356;50.920;5.350;2023-02-22T13:05:42;13.80;99.90
41668;DHT22;27356;50.920;5.350;2023-02-22T13:08:21;13.80;99.90
41668;DHT22;27356;50.920;5.350;2023-02-22T13:10:56;13.40;99.90
41668;DHT22;27356;50.920;5.350;2023-02-22T13:14:02;13.30;99.90
41668;DHT22;27356;50.920;5.350;2023-02-22T13:16:49;13.00;99.90
41668;DHT22;27356;50.920;5.350;2023-02-22T13:22:40;12.90;99.90
41668;DHT22;27356;50.920;5.350;2023-02-22T13:28:02;13.00;99.90
41668;DHT22;27356;50.920;5.350;2023-02-22T13:30:40;13.00;99.90
41668;DHT22;27356;50.920;5.350;2023-02-22T13:36:00;13.00;99.90
41668;DHT22;27356;50.920;5.350;2023-02-22T13:41:33;12.90;99.90
41668;DHT22;27356;50.920;5.350;2023-02-22T13:51:59;13.40;99.90
41668;DHT22;27356;50.920;5.350;2023-02-22T13:57:00;13.50;99.90
41668;DHT22;27356;50.920;5.350;2023-02-22T13:59:33;13.50;99.90
41668;DHT22;27356;50.920;5.350;2023-02-22T14:02:00;13.30;99.90
41668;DHT22;27356;50.920;5.350;2023-02-22T14:17:36;12.70;99.90
41668;DHT22;27356;50.920;5.350;2023-02-22T14:20:25;12.80;99.90
41668;DHT22;27356;50.920;5.350;2023-02-22T14:22:56;12.80;99.90
41668;DHT22;27356;50.920;5.350;2023-02-22T14:25:41;12.80;99.90
41668;DHT22;27356;50.920;5.350;2023-02-22T14:28:37;12.80;99.90
41668;DHT22;27356;50.920;5.350;2023-02-22T14:31:29;12.80;99.90
41668;DHT22;27356;50.920;5.350;2023-02-22T14:36:50;13.00;99.90
41668;DHT22;27356;50.920;5.350;2023-02-22T14:39:37;13.00;99.90
41668;DHT22;27356;50.920;5.350;2023-02-22T14:47:34;12.80;99.90
41668;DHT22;27356;50.920;5.350;2023-02-22T14:50:26;12.80;99.90
41668;DHT22;27356;50.920;5.350;2023-02-22T14:55:45;12.60;99.90
41668;DHT22;27356;50.920;5.350;2023-02-22T14:58:22;12.60;99.90
41668;DHT22;27356;50.920;5.350;2023-02-22T15:01:25;12.60;99.90
41668;DHT22;27356;50.920;5.350;2023-02-22T15:03:51;12.60;99.90
41668;DHT22;27356;50.920;5.350;2023-02-22T15:06:25;12.60;99.90
41668;DHT22;27356;50.920;5.350;2023-02-22T15:09:29;12.70;99.90
41668;DHT22;27356;50.920;5.350;2023-02-22T15:14:33;12.40;99.90
41668;DHT22;27356;50.920;5.350;2023-02-22T15:17:19;12.50;99.90
41668;DHT22;27356;50.920;5.350;2023-02-22T15:19:46;12.50;99.90
41668;DHT22;27356;50.920;5.350;2023-02-22T15:22:20;12.40;99.90
41668;DHT22;27356;50.920;5.350;2023-02-22T15:25:01;12.40;99.90
41668;DHT22;27356;50.920;5.350;2023-02-22T15:27:27;12.40;99.90
41668;DHT22;27356;50.920;5.350;2023-02-22T15:30:14;12.50;99.90
41668;DHT22;27356;50.920;5.350;2023-02-22T15:32:41;12.50;99.90
41668;DHT22;27356;50.920;5.350;2023-02-22T15:35:23;12.50;99.90
41668;DHT22;27356;50.920;5.350;2023-02-22T15:38:04;12.50;99.90
41668;DHT22;27356;50.920;5.350;2023-02-22T15:40:31;12.50;99.90
41668;DHT22;27356;50.920;5.350;2023-02-22T15:43:06;12.50;99.90
41668;DHT22;27356;50.920;5.350;2023-02-22T15:45:35;12.40;99.90
41668;DHT22;27356;50.920;5.350;2023-02-22T15:48:08;12.50;99.90
41668;DHT22;27356;50.920;5.350;2023-02-22T15:50:34;12.40;99.90
41668;DHT22;27356;50.920;5.350;2023-02-22T15:53:17;12.40;99.90
41668;DHT22;27356;50.920;5.350;2023-02-22T15:55:58;12.30;99.90
41668;DHT22;27356;50.920;5.350;2023-02-22T15:58:26;12.20;99.90
41668;DHT22;27356;50.920;5.350;2023-02-22T16:01:04;12.30;99.90
41668;DHT22;27356;50.920;5.350;2023-02-22T16:03:40;12.30;99.90
41668;DHT22;27356;50.920;5.350;2023-02-22T16:06:35;12.20;99.90
41668;DHT22;27356;50.920;5.350;2023-02-22T16:11:40;12.20;99.90
41668;DHT22;27356;50.920;5.350;2023-02-22T16:14:28;12.30;99.90
41668;DHT22;27356;50.920;5.350;2023-02-22T16:22:45;12.10;99.90
41668;DHT22;27356;50.920;5.350;2023-02-22T16:25:21;12.10;99.90
41668;DHT22;27356;50.920;5.350;2023-02-22T16:27:54;12.10;99.90
41668;DHT22;27356;50.920;5.350;2023-02-22T16:30:26;12.20;99.90
41668;DHT22;27356;50.920;5.350;2023-02-22T16:32:54;12.20;99.90
41668;DHT22;27356;50.920;5.350;2023-02-22T16:35:20;12.10;99.90
41668;DHT22;27356;50.920;5.350;2023-02-22T16:37:48;12.10;99.90
41668;DHT22;27356;50.920;5.350;2023-02-22T16:40:21;12.00;99.90
41668;DHT22;27356;50.920;5.350;2023-02-22T16:42:47;12.00;99.90
41668;DHT22;27356;50.920;5.350;2023-02-22T16:45:17;12.10;99.90
41668;DHT22;27356;50.920;5.350;2023-02-22T16:47:43;12.00;99.90
41668;DHT22;27356;50.920;5.350;2023-02-22T16:50:10;12.00;99.90
41668;DHT22;27356;50.920;5.350;2023-02-22T16:52:40;12.00;99.90
41668;DHT22;27356;50.920;5.350;2023-02-22T16:55:09;12.00;99.90
41668;DHT22;27356;50.920;5.350;2023-02-22T16:57:37;12.00;99.90
41668;DHT22;27356;50.920;5.350;2023-02-22T17:00:05;12.00;99.90
41668;DHT22;27356;50.920;5.350;2023-02-22T17:02:34;11.80;99.90
41668;DHT22;27356;50.920;5.350;2023-02-22T17:04:59;11.80;99.90
41668;DHT22;27356;50.920;5.350;2023-02-22T17:07:25;11.70;99.90
41668;DHT22;27356;50.920;5.350;2023-02-22T17:09:57;11.60;99.90
41668;DHT22;27356;50.920;5.350;2023-02-22T17:12:26;11.60;99.90
41668;DHT22;27356;50.920;5.350;2023-02-22T17:14:53;11.40;99.90
41668;DHT22;27356;50.920;5.350;2023-02-22T17:17:19;11.40;99.90
41668;DHT22;27356;50.920;5.350;2023-02-22T17:19:45;11.50;99.90
41668;DHT22;27356;50.920;5.350;2023-02-22T17:22:17;11.60;99.90
41668;DHT22;27356;50.920;5.350;2023-02-22T17:24:43;11.60;99.90
41668;DHT22;27356;50.920;5.350;2023-02-22T17:27:08;11.60;99.90
41668;DHT22;27356;50.920;5.350;2023-02-22T17:29:34;11.50;99.90
41668;DHT22;27356;50.920;5.350;2023-02-22T17:32:00;11.40;99.90
41668;DHT22;27356;50.920;5.350;2023-02-22T17:34:27;11.40;99.90
41668;DHT22;27356;50.920;5.350;2023-02-22T17:36:53;11.40;99.90
41668;DHT22;27356;50.920;5.350;2023-02-22T17:39:18;11.50;99.90
41668;DHT22;27356;50.920;5.350;2023-02-22T17:41:44;11.50;99.90
41668;DHT22;27356;50.920;5.350;2023-02-22T17:44:10;11.60;99.90
41668;DHT22;27356;50.920;5.350;2023-02-22T17:46:37;11.70;99.90
41668;DHT22;27356;50.920;5.350;2023-02-22T17:49:06;11.50;99.90
41668;DHT22;27356;50.920;5.350;2023-02-22T17:51:31;11.30;99.90
41668;DHT22;27356;50.920;5.350;2023-02-22T17:53:57;11.40;99.90
41668;DHT22;27356;50.920;5.350;2023-02-22T17:56:23;11.30;99.90
41668;DHT22;27356;50.920;5.350;2023-02-22T17:58:51;11.40;99.90
41668;DHT22;27356;50.920;5.350;2023-02-22T18:01:25;11.20;99.90
41668;DHT22;27356;50.920;5.350;2023-02-22T18:03:54;11.20;99.90
41668;DHT22;27356;50.920;5.350;2023-02-22T18:06:21;11.20;99.90
41668;DHT22;27356;50.920;5.350;2023-02-22T18:08:48;11.30;99.90
41668;DHT22;27356;50.920;5.350;2023-02-22T18:11:14;11.30;99.90
41668;DHT22;27356;50.920;5.350;2023-02-22T18:13:40;11.40;99.90
41668;DHT22;27356;50.920;5.350;2023-02-22T18:16:06;11.30;99.90
41668;DHT22;27356;50.920;5.350;2023-02-22T18:18:34;11.30;99.90
41668;DHT22;27356;50.920;5.350;2023-02-22T18:21:00;11.40;99.90
41668;DHT22;27356;50.920;5.350;2023-02-22T18:23:28;11.30;99.90
41668;DHT22;27356;50.920;5.350;2023-02-22T18:25:56;11.30;99.90
41668;DHT22;27356;50.920;5.350;2023-02-22T18:28:22;11.30;99.90
41668;DHT22;27356;50.920;5.350;2023-02-22T18:30:49;11.20;99.90
41668;DHT22;27356;50.920;5.350;2023-02-22T18:33:16;11.30;99.90
41668;DHT22;27356;50.920;5.350;2023-02-22T18:35:46;11.20;99.90
41668;DHT22;27356;50.920;5.350;2023-02-22T18:38:13;11.20;99.90
41668;DHT22;27356;50.920;5.350;2023-02-22T18:40:42;11.20;99.90
41668;DHT22;27356;50.920;5.350;2023-02-22T18:43:11;11.20;99.90